sensor_id;sensor_type;location;lat;lon;timestamp;pressure;altitude;pressure_sealevel;temperature;humidity
71735;BME280;59577;52.122;5.406;2023-11-22T00:01:52;102894.84;;;4.44;100.00
71735;BME280;59577;52.122;5.406;2023-11-22T00:04:19;102898.31;;;4.40;100.00
71735;BME280;59577;52.122;5.406;2023-11-22T00:06:46;102897.75;;;4.38;100.00
71735;BME280;59577;52.122;5.406;2023-11-22T00:09:13;102890.50;;;4.33;100.00
71735;BME280;59577;52.122;5.406;2023-11-22T00:11:40;102899.28;;;4.28;100.00
71735;BME280;59577;52.122;5.406;2023-11-22T00:14:07;102897.66;;;4.22;100.00
71735;BME280;59577;52.122;5.406;2023-11-22T00:16:34;102911.31;;;4.21;100.00
71735;BME280;59577;52.122;5.406;2023-11-22T00:19:03;102916.63;;;4.16;100.00
71735;BME280;59577;52.122;5.406;2023-11-22T00:21:31;102923.56;;;4.11;100.00
71735;BME280;59577;52.122;5.406;2023-11-22T00:23:58;102930.03;;;4.16;100.00
71735;BME280;59577;52.122;5.406;2023-11-22T00:26:24;102923.34;;;4.18;100.00
71735;BME280;59577;52.122;5.406;2023-11-22T00:28:51;102927.91;;;4.18;100.00
71735;BME280;59577;52.122;5.406;2023-11-22T00:31:19;102921.47;;;4.19;100.00
71735;BME280;59577;52.122;5.406;2023-11-22T00:33:46;102924.44;;;4.17;100.00
71735;BME280;59577;52.122;5.406;2023-11-22T00:36:12;102934.63;;;4.20;100.00
71735;BME280;59577;52.122;5.406;2023-11-22T00:38:39;102929.22;;;4.15;100.00
71735;BME280;59577;52.122;5.406;2023-11-22T00:41:06;102921.97;;;4.10;100.00
71735;BME280;59577;52.122;5.406;2023-11-22T00:43:34;102927.16;;;4.22;100.00
71735;BME280;59577;52.122;5.406;2023-11-22T00:46:00;102918.81;;;4.24;100.00
71735;BME280;59577;52.122;5.406;2023-11-22T00:48:28;102918.53;;;4.20;100.00
71735;BME280;59577;52.122;5.406;2023-11-22T00:50:54;102919.88;;;4.18;100.00
71735;BME280;59577;52.122;5.406;2023-11-22T00:53:21;102923.31;;;4.13;100.00
71735;BME280;59577;52.122;5.406;2023-11-22T00:55:47;102928.06;;;4.06;100.00
71735;BME280;59577;52.122;5.406;2023-11-22T00:58:14;102928.06;;;4.06;100.00
71735;BME280;59577;52.122;5.406;2023-11-22T01:00:41;102934.22;;;4.06;100.00
71735;BME280;59577;52.122;5.406;2023-11-22T01:03:07;102943.84;;;4.02;100.00
71735;BME280;59577;52.122;5.406;2023-11-22T01:05:38;102947.81;;;3.94;100.00
71735;BME280;59577;52.122;5.406;2023-11-22T01:08:04;102948.06;;;3.93;100.00
71735;BME280;59577;52.122;5.406;2023-11-22T01:10:31;102961.66;;;3.86;100.00
71735;BME280;59577;52.122;5.406;2023-11-22T01:12:57;102967.47;;;3.78;100.00
71735;BME280;59577;52.122;5.406;2023-11-22T01:15:24;102977.34;;;3.72;100.00
71735;BME280;59577;52.122;5.406;2023-11-22T01:17:51;102979.72;;;3.69;100.00
71735;BME280;59577;52.122;5.406;2023-11-22T01:20:17;102992.56;;;3.72;100.00
71735;BME280;59577;52.122;5.406;2023-11-22T01:22:45;102990.97;;;3.71;100.00
71735;BME280;59577;52.122;5.406;2023-11-22T01:25:11;102997.94;;;3.72;100.00
71735;BME280;59577;52.122;5.406;2023-11-22T01:27:38;102996.06;;;3.72;100.00
71735;BME280;59577;52.122;5.406;2023-11-22T01:30:05;103001.13;;;3.69;100.00
71735;BME280;59577;52.122;5.406;2023-11-22T01:32:34;103000.81;;;3.65;100.00
71735;BME280;59577;52.122;5.406;2023-11-22T01:35:01;103002.91;;;3.63;100.00
71735;BME280;59577;52.122;5.406;2023-11-22T01:37:28;102999.13;;;3.59;100.00
71735;BME280;59577;52.122;5.406;2023-11-22T01:39:54;103002.84;;;3.58;100.00
71735;BME280;59577;52.122;5.406;2023-11-22T01:42:21;103000.94;;;3.53;100.00
71735;BME280;59577;52.122;5.406;2023-11-22T01:44:50;103005.16;;;3.49;100.00
71735;BME280;59577;52.122;5.406;2023-11-22T01:47:17;103006.50;;;3.47;100.00
71735;BME280;59577;52.122;5.406;2023-11-22T01:49:44;102998.41;;;3.42;100.00
71735;BME280;59577;52.122;5.406;2023-11-22T01:52:11;103002.38;;;3.39;100.00
71735;BME280;59577;52.122;5.406;2023-11-22T01:54:38;102996.47;;;3.37;100.00
71735;BME280;59577;52.122;5.406;2023-11-22T01:57:06;103001.81;;;3.37;100.00
71735;BME280;59577;52.122;5.406;2023-11-22T01:59:35;102999.63;;;3.34;100.00
71735;BME280;59577;52.122;5.406;2023-11-22T02:02:02;102996.91;;;3.29;100.00
71735;BME280;59577;52.122;5.406;2023-11-22T02:04:30;103000.56;;;3.23;100.00
71735;BME280;59577;52.122;5.406;2023-11-22T02:06:56;103004.03;;;3.23;100.00
71735;BME280;59577;52.122;5.406;2023-11-22T02:09:23;103005.19;;;3.27;100.00
71735;BME280;59577;52.122;5.406;2023-11-22T02:11:49;103007.63;;;3.29;100.00
71735;BME280;59577;52.122;5.406;2023-11-22T02:14:16;103010.28;;;3.29;100.00
71735;BME280;59577;52.122;5.406;2023-11-22T02:16:43;103011.91;;;3.30;100.00
71735;BME280;59577;52.122;5.406;2023-11-22T02:19:14;103011.34;;;3.28;100.00
71735;BME280;59577;52.122;5.406;2023-11-22T02:21:42;103016.63;;;3.23;100.00
71735;BME280;59577;52.122;5.406;2023-11-22T02:24:10;103024.09;;;3.20;100.00
71735;BME280;59577;52.122;5.406;2023-11-22T02:26:36;103012.50;;;3.15;100.00
71735;BME280;59577;52.122;5.406;2023-11-22T02:29:03;103010.34;;;3.12;100.00
71735;BME280;59577;52.122;5.406;2023-11-22T02:31:33;102999.31;;;3.08;100.00
71735;BME280;59577;52.122;5.406;2023-11-22T02:34:00;103006.75;;;3.06;100.00
71735;BME280;59577;52.122;5.406;2023-11-22T02:36:27;103002.41;;;3.00;100.00
71735;BME280;59577;52.122;5.406;2023-11-22T02:38:53;102992.13;;;2.92;100.00
71735;BME280;59577;52.122;5.406;2023-11-22T02:41:20;102997.16;;;2.88;100.00
71735;BME280;59577;52.122;5.406;2023-11-22T02:43:47;103001.94;;;2.86;100.00
71735;BME280;59577;52.122;5.406;2023-11-22T02:46:13;102996.34;;;2.88;100.00
71735;BME280;59577;52.122;5.406;2023-11-22T02:48:40;102994.09;;;2.79;100.00
71735;BME280;59577;52.122;5.406;2023-11-22T02:51:07;102995.13;;;2.78;100.00
71735;BME280;59577;52.122;5.406;2023-11-22T02:53:33;102991.34;;;2.74;100.00
71735;BME280;59577;52.122;5.406;2023-11-22T02:56:00;102989.47;;;2.75;100.00
71735;BME280;59577;52.122;5.406;2023-11-22T02:58:29;102984.44;;;2.78;100.00
71735;BME280;59577;52.122;5.406;2023-11-22T03:00:56;102982.06;;;2.82;100.00
71735;BME280;59577;52.122;5.406;2023-11-22T03:03:23;102983.22;;;2.86;100.00
71735;BME280;59577;52.122;5.406;2023-11-22T03:05:53;102992.84;;;2.87;100.00
71735;BME280;59577;52.122;5.406;2023-11-22T03:08:20;102991.25;;;2.86;100.00
71735;BME280;59577;52.122;5.406;2023-11-22T03:10:47;102986.84;;;2.80;100.00
71735;BME280;59577;52.122;5.406;2023-11-22T03:13:13;103000.59;;;2.67;100.00
71735;BME280;59577;52.122;5.406;2023-11-22T03:15:40;102998.72;;;2.67;100.00
71735;BME280;59577;52.122;5.406;2023-11-22T03:18:06;103005.94;;;2.67;100.00
71735;BME280;59577;52.122;5.406;2023-11-22T03:20:33;103012.56;;;2.64;100.00
71735;BME280;59577;52.122;5.406;2023-11-22T03:23:00;103012.25;;;2.60;100.00
71735;BME280;59577;52.122;5.406;2023-11-22T03:25:27;103022.13;;;2.60;100.00
71735;BME280;59577;52.122;5.406;2023-11-22T03:27:55;103018.56;;;2.54;100.00
71735;BME280;59577;52.122;5.406;2023-11-22T03:30:22;103030.31;;;2.53;100.00
71735;BME280;59577;52.122;5.406;2023-11-22T03:32:48;103038.81;;;2.50;100.00
71735;BME280;59577;52.122;5.406;2023-11-22T03:35:16;103047.06;;;2.49;100.00
71735;BME280;59577;52.122;5.406;2023-11-22T03:37:43;103043.84;;;2.47;100.00
71735;BME280;59577;52.122;5.406;2023-11-22T03:40:09;103048.13;;;2.48;100.00
71735;BME280;59577;52.122;5.406;2023-11-22T03:42:37;103059.31;;;2.44;100.00
71735;BME280;59577;52.122;5.406;2023-11-22T03:45:05;103066.25;;;2.45;100.00
71735;BME280;59577;52.122;5.406;2023-11-22T03:47:33;103064.25;;;2.53;100.00
71735;BME280;59577;52.122;5.406;2023-11-22T03:50:00;103065.94;;;2.59;100.00
71735;BME280;59577;52.122;5.406;2023-11-22T03:52:26;103065.94;;;2.59;100.00
71735;BME280;59577;52.122;5.406;2023-11-22T03:54:55;103076.66;;;2.59;100.00
71735;BME280;59577;52.122;5.406;2023-11-22T03:57:23;103089.69;;;2.55;100.00
71735;BME280;59577;52.122;5.406;2023-11-22T03:59:50;103084.25;;;2.50;100.00
71735;BME280;59577;52.122;5.406;2023-11-22T04:02:17;103088.31;;;2.53;100.00
71735;BME280;59577;52.122;5.406;2023-11-22T04:04:46;103092.84;;;2.52;100.00
71735;BME280;59577;52.122;5.406;2023-11-22T04:07:13;103092.75;;;2.47;100.00
71735;BME280;59577;52.122;5.406;2023-11-22T04:09:39;103097.28;;;2.47;100.00
71735;BME280;59577;52.122;5.406;2023-11-22T04:12:06;103101.59;;;2.48;100.00
71735;BME280;59577;52.122;5.406;2023-11-22T04:14:32;103110.19;;;2.50;100.00
71735;BME280;59577;52.122;5.406;2023-11-22T04:16:59;103104.00;;;2.49;100.00
71735;BME280;59577;52.122;5.406;2023-11-22T04:19:26;103106.13;;;2.47;100.00
71735;BME280;59577;52.122;5.406;2023-11-22T04:21:53;103104.97;;;2.43;100.00
71735;BME280;59577;52.122;5.406;2023-11-22T04:24:20;103099.53;;;2.38;100.00
71735;BME280;59577;52.122;5.406;2023-11-22T04:26:47;103107.78;;;2.36;100.00
71735;BME280;59577;52.122;5.406;2023-11-22T04:29:14;103109.84;;;2.46;100.00
71735;BME280;59577;52.122;5.406;2023-11-22T04:31:43;103113.88;;;2.49;100.00
71735;BME280;59577;52.122;5.406;2023-11-22T04:34:09;103109.63;;;2.48;100.00
71735;BME280;59577;52.122;5.406;2023-11-22T04:36:36;103118.53;;;2.53;100.00
71735;BME280;59577;52.122;5.406;2023-11-22T04:39:03;103119.34;;;2.54;100.00
71735;BME280;59577;52.122;5.406;2023-11-22T04:41:30;103115.28;;;2.51;100.00
71735;BME280;59577;52.122;5.406;2023-11-22T04:43:57;103124.25;;;2.45;100.00
71735;BME280;59577;52.122;5.406;2023-11-22T04:46:23;103122.66;;;2.44;100.00
71735;BME280;59577;52.122;5.406;2023-11-22T04:48:51;103121.34;;;2.47;100.00
71735;BME280;59577;52.122;5.406;2023-11-22T04:51:18;103120.78;;;2.44;100.00
71735;BME280;59577;52.122;5.406;2023-11-22T04:53:44;103119.97;;;2.44;100.00
71735;BME280;59577;52.122;5.406;2023-11-22T04:56:11;103115.91;;;2.41;100.00
71735;BME280;59577;52.122;5.406;2023-11-22T04:58:37;103118.59;;;2.41;100.00
71735;BME280;59577;52.122;5.406;2023-11-22T05:01:04;103116.63;;;2.37;100.00
71735;BME280;59577;52.122;5.406;2023-11-22T05:03:31;103108.28;;;2.33;100.00
71735;BME280;59577;52.122;5.406;2023-11-22T05:05:59;103104.03;;;2.20;100.00
71735;BME280;59577;52.122;5.406;2023-11-22T05:08:25;103105.06;;;2.19;100.00
71735;BME280;59577;52.122;5.406;2023-11-22T05:10:52;103102.63;;;2.18;100.00
71735;BME280;59577;52.122;5.406;2023-11-22T05:13:20;103102.63;;;2.18;100.00
71735;BME280;59577;52.122;5.406;2023-11-22T05:15:47;103110.75;;;2.23;100.00
71735;BME280;59577;52.122;5.406;2023-11-22T05:18:14;103108.50;;;2.32;100.00
71735;BME280;59577;52.122;5.406;2023-11-22T05:20:40;103111.59;;;2.40;100.00
71735;BME280;59577;52.122;5.406;2023-11-22T05:23:07;103100.44;;;2.43;100.00
71735;BME280;59577;52.122;5.406;2023-11-22T05:25:33;103100.91;;;2.40;100.00
71735;BME280;59577;52.122;5.406;2023-11-22T05:28:00;103100.09;;;2.40;100.00
71735;BME280;59577;52.122;5.406;2023-11-22T05:30:26;103100.34;;;2.38;100.00
71735;BME280;59577;52.122;5.406;2023-11-22T05:32:53;103106.75;;;2.37;100.00
71735;BME280;59577;52.122;5.406;2023-11-22T05:35:20;103107.41;;;2.44;100.00
71735;BME280;59577;52.122;5.406;2023-11-22T05:37:47;103109.03;;;2.45;100.00
71735;BME280;59577;52.122;5.406;2023-11-22T05:40:14;103104.75;;;2.44;100.00
71735;BME280;59577;52.122;5.406;2023-11-22T05:42:42;103120.78;;;2.44;100.00
71735;BME280;59577;52.122;5.406;2023-11-22T05:45:09;103116.81;;;2.47;100.00
71735;BME280;59577;52.122;5.406;2023-11-22T05:47:36;103127.72;;;2.45;100.00
71735;BME280;59577;52.122;5.406;2023-11-22T05:50:04;103126.47;;;2.48;100.00
71735;BME280;59577;52.122;5.406;2023-11-22T05:52:31;103129.13;;;2.48;100.00
71735;BME280;59577;52.122;5.406;2023-11-22T05:54:58;103134.47;;;2.48;100.00
71735;BME280;59577;52.122;5.406;2023-11-22T05:57:24;103132.03;;;2.47;100.00
71735;BME280;59577;52.122;5.406;2023-11-22T05:59:52;103126.03;;;2.39;100.00
71735;BME280;59577;52.122;5.406;2023-11-22T06:02:19;103136.59;;;2.46;100.00
71735;BME280;59577;52.122;5.406;2023-11-22T06:04:45;103128.91;;;2.50;100.00
71735;BME280;59577;52.122;5.406;2023-11-22T06:07:12;103120.88;;;2.50;100.00
71735;BME280;59577;52.122;5.406;2023-11-22T06:09:38;103132.84;;;2.47;100.00
71735;BME280;59577;52.122;5.406;2023-11-22T06:12:06;103137.00;;;2.55;100.00
71735;BME280;59577;52.122;5.406;2023-11-22T06:14:33;103134.34;;;2.55;100.00
71735;BME280;59577;52.122;5.406;2023-11-22T06:17:00;103128.22;;;2.42;100.00
71735;BME280;59577;52.122;5.406;2023-11-22T06:19:26;103125.56;;;2.42;100.00
71735;BME280;59577;52.122;5.406;2023-11-22T06:21:52;103132.38;;;2.50;100.00
71735;BME280;59577;52.122;5.406;2023-11-22T06:24:21;103135.59;;;2.52;100.00
71735;BME280;59577;52.122;5.406;2023-11-22T06:26:48;103141.53;;;2.54;100.00
71735;BME280;59577;52.122;5.406;2023-11-22T06:29:16;103158.16;;;2.56;100.00
71735;BME280;59577;52.122;5.406;2023-11-22T06:31:42;103152.81;;;2.56;100.00
71735;BME280;59577;52.122;5.406;2023-11-22T06:34:09;103162.91;;;2.54;100.00
71735;BME280;59577;52.122;5.406;2023-11-22T06:36:36;103159.56;;;2.47;100.00
71735;BME280;59577;52.122;5.406;2023-11-22T06:39:02;103161.09;;;2.43;100.00
71735;BME280;59577;52.122;5.406;2023-11-22T06:41:30;103156.38;;;2.33;100.00
71735;BME280;59577;52.122;5.406;2023-11-22T06:43:57;103141.31;;;2.27;100.00
71735;BME280;59577;52.122;5.406;2023-11-22T06:46:24;103140.00;;;2.30;100.00
71735;BME280;59577;52.122;5.406;2023-11-22T06:48:50;103142.53;;;2.36;100.00
71735;BME280;59577;52.122;5.406;2023-11-22T06:51:17;103130.91;;;2.42;100.00
71735;BME280;59577;52.122;5.406;2023-11-22T06:53:45;103126.47;;;2.48;100.00
71735;BME280;59577;52.122;5.406;2023-11-22T06:56:12;103126.06;;;2.56;100.00
71735;BME280;59577;52.122;5.406;2023-11-22T06:58:39;103118.06;;;2.56;100.00
71735;BME280;59577;52.122;5.406;2023-11-22T07:01:06;103113.84;;;2.60;100.00
71735;BME280;59577;52.122;5.406;2023-11-22T07:03:33;103124.28;;;2.62;100.00
71735;BME280;59577;52.122;5.406;2023-11-22T07:06:00;103126.72;;;2.63;100.00
71735;BME280;59577;52.122;5.406;2023-11-22T07:08:27;103127.88;;;2.68;100.00
71735;BME280;59577;52.122;5.406;2023-11-22T07:10:54;103138.09;;;2.71;100.00
71735;BME280;59577;52.122;5.406;2023-11-22T07:13:23;103131.69;;;2.72;100.00
71735;BME280;59577;52.122;5.406;2023-11-22T07:15:50;103138.88;;;2.71;100.00
71735;BME280;59577;52.122;5.406;2023-11-22T07:18:17;103143.91;;;2.68;100.00
71735;BME280;59577;52.122;5.406;2023-11-22T07:20:44;103144.06;;;2.61;100.00
71735;BME280;59577;52.122;5.406;2023-11-22T07:23:11;103150.22;;;2.61;100.00
71735;BME280;59577;52.122;5.406;2023-11-22T07:25:40;103149.72;;;2.64;100.00
71735;BME280;59577;52.122;5.406;2023-11-22T07:28:07;103139.97;;;2.70;100.00
71735;BME280;59577;52.122;5.406;2023-11-22T07:30:35;103142.13;;;2.73;100.00
71735;BME280;59577;52.122;5.406;2023-11-22T07:33:05;103144.31;;;2.76;100.00
71735;BME280;59577;52.122;5.406;2023-11-22T07:35:32;103140.13;;;2.80;100.00
71735;BME280;59577;52.122;5.406;2023-11-22T07:37:59;103142.06;;;2.85;100.00
71735;BME280;59577;52.122;5.406;2023-11-22T07:40:26;103150.16;;;2.90;100.00
71735;BME280;59577;52.122;5.406;2023-11-22T07:42:53;103160.72;;;2.97;100.00
71735;BME280;59577;52.122;5.406;2023-11-22T07:45:20;103154.97;;;3.05;100.00
71735;BME280;59577;52.122;5.406;2023-11-22T07:47:48;103158.78;;;3.09;100.00
71735;BME280;59577;52.122;5.406;2023-11-22T07:50:15;103156.66;;;3.11;100.00
71735;BME280;59577;52.122;5.406;2023-11-22T07:52:42;103154.25;;;3.10;100.00
71735;BME280;59577;52.122;5.406;2023-11-22T07:55:08;103153.19;;;3.11;100.00
71735;BME280;59577;52.122;5.406;2023-11-22T07:57:39;103159.25;;;3.06;100.00
71735;BME280;59577;52.122;5.406;2023-11-22T08:00:07;103158.53;;;3.11;100.00
71735;BME280;59577;52.122;5.406;2023-11-22T08:02:34;103167.53;;;3.22;100.00
71735;BME280;59577;52.122;5.406;2023-11-22T08:05:03;103185.31;;;3.28;100.00
71735;BME280;59577;52.122;5.406;2023-11-22T08:07:36;103193.25;;;3.56;100.00
71735;BME280;59577;52.122;5.406;2023-11-22T08:10:06;103191.69;;;3.61;100.00
71735;BME280;59577;52.122;5.406;2023-11-22T08:12:52;103197.69;;;3.51;100.00
71735;BME280;59577;52.122;5.406;2023-11-22T08:15:18;103211.53;;;3.43;100.00
71735;BME280;59577;52.122;5.406;2023-11-22T08:17:46;103208.84;;;3.43;100.00
71735;BME280;59577;52.122;5.406;2023-11-22T08:20:13;103210.69;;;3.42;100.00
71735;BME280;59577;52.122;5.406;2023-11-22T08:22:47;103209.31;;;3.39;100.00
71735;BME280;59577;52.122;5.406;2023-11-22T08:25:16;103212.88;;;3.45;100.00
71735;BME280;59577;52.122;5.406;2023-11-22T08:27:43;103220.50;;;3.53;100.00
71735;BME280;59577;52.122;5.406;2023-11-22T08:30:10;103221.94;;;3.61;100.00
71735;BME280;59577;52.122;5.406;2023-11-22T08:32:42;103208.41;;;3.68;100.00
71735;BME280;59577;52.122;5.406;2023-11-22T08:35:10;103211.41;;;3.71;100.00
71735;BME280;59577;52.122;5.406;2023-11-22T08:37:40;103214.38;;;3.75;100.00
71735;BME280;59577;52.122;5.406;2023-11-22T08:40:09;103213.97;;;3.83;100.00
71735;BME280;59577;52.122;5.406;2023-11-22T08:42:40;103210.25;;;3.84;100.00
71735;BME280;59577;52.122;5.406;2023-11-22T08:45:10;103212.34;;;3.82;100.00
71735;BME280;59577;52.122;5.406;2023-11-22T08:47:39;103207.50;;;3.79;100.00
71735;BME280;59577;52.122;5.406;2023-11-22T08:50:08;103196.03;;;3.84;100.00
71735;BME280;59577;52.122;5.406;2023-11-22T08:52:34;103205.94;;;3.83;100.00
71735;BME280;59577;52.122;5.406;2023-11-22T08:55:03;103206.88;;;3.94;100.00
71735;BME280;59577;52.122;5.406;2023-11-22T08:57:29;103200.06;;;4.03;100.00
71735;BME280;59577;52.122;5.406;2023-11-22T08:59:56;103204.16;;;4.11;100.00
71735;BME280;59577;52.122;5.406;2023-11-22T09:02:25;103210.38;;;4.17;100.00
71735;BME280;59577;52.122;5.406;2023-11-22T09:04:53;103201.84;;;4.20;100.00
71735;BME280;59577;52.122;5.406;2023-11-22T09:07:19;103214.38;;;4.14;100.00
71735;BME280;59577;52.122;5.406;2023-11-22T09:09:48;103210.00;;;4.08;100.00
71735;BME280;59577;52.122;5.406;2023-11-22T09:12:15;103207.31;;;4.08;100.00
71735;BME280;59577;52.122;5.406;2023-11-22T09:14:41;103211.72;;;4.14;100.00
71735;BME280;59577;52.122;5.406;2023-11-22T09:17:08;103211.72;;;4.14;100.00
71735;BME280;59577;52.122;5.406;2023-11-22T09:19:36;103209.34;;;4.18;100.00
71735;BME280;59577;52.122;5.406;2023-11-22T09:22:04;103208.19;;;4.13;100.00
71735;BME280;59577;52.122;5.406;2023-11-22T09:24:32;103216.59;;;4.17;100.00
71735;BME280;59577;52.122;5.406;2023-11-22T09:27:00;103222.91;;;4.11;100.00
71735;BME280;59577;52.122;5.406;2023-11-22T09:29:27;103217.00;;;4.09;100.00
71735;BME280;59577;52.122;5.406;2023-11-22T09:31:54;103226.41;;;4.11;100.00
71735;BME280;59577;52.122;5.406;2023-11-22T09:34:21;103224.09;;;4.20;100.00
71735;BME280;59577;52.122;5.406;2023-11-22T09:36:47;103213.97;;;4.22;100.00
71735;BME280;59577;52.122;5.406;2023-11-22T09:39:14;103221.00;;;4.28;100.00
71735;BME280;59577;52.122;5.406;2023-11-22T09:41:40;103215.63;;;4.28;100.00
71735;BME280;59577;52.122;5.406;2023-11-22T09:44:07;103217.00;;;4.31;100.00
71735;BME280;59577;52.122;5.406;2023-11-22T09:46:37;103215.13;;;4.31;100.00
71735;BME280;59577;52.122;5.406;2023-11-22T09:49:08;103212.22;;;4.33;100.00
71735;BME280;59577;52.122;5.406;2023-11-22T09:51:41;103210.09;;;4.35;100.00
71735;BME280;59577;52.122;5.406;2023-11-22T09:54:10;103227.47;;;4.32;100.00
71735;BME280;59577;52.122;5.406;2023-11-22T09:56:40;103222.44;;;4.36;100.00
71735;BME280;59577;52.122;5.406;2023-11-22T09:59:08;103224.84;;;4.38;100.00
71735;BME280;59577;52.122;5.406;2023-11-22T10:01:34;103227.09;;;4.46;100.00
71735;BME280;59577;52.122;5.406;2023-11-22T10:04:03;103220.25;;;4.55;100.00
71735;BME280;59577;52.122;5.406;2023-11-22T10:06:33;103223.72;;;4.56;100.00
71735;BME280;59577;52.122;5.406;2023-11-22T10:09:02;103203.63;;;4.58;100.00
71735;BME280;59577;52.122;5.406;2023-11-22T10:11:35;103201.53;;;4.60;100.00
71735;BME280;59577;52.122;5.406;2023-11-22T10:14:09;103195.94;;;4.67;100.00
71735;BME280;59577;52.122;5.406;2023-11-22T10:16:36;103181.72;;;4.66;100.00
71735;BME280;59577;52.122;5.406;2023-11-22T10:19:03;103186.00;;;4.62;100.00
71735;BME280;59577;52.122;5.406;2023-11-22T10:21:33;103193.19;;;4.62;100.00
71735;BME280;59577;52.122;5.406;2023-11-22T10:24:03;103198.56;;;4.62;100.00
71735;BME280;59577;52.122;5.406;2023-11-22T10:26:30;103192.94;;;4.63;100.00
71735;BME280;59577;52.122;5.406;2023-11-22T10:28:58;103192.75;;;4.70;100.00
71735;BME280;59577;52.122;5.406;2023-11-22T10:31:25;103197.88;;;4.71;100.00
71735;BME280;59577;52.122;5.406;2023-11-22T10:33:53;103199.06;;;4.86;100.00
71735;BME280;59577;52.122;5.406;2023-11-22T10:36:21;103175.00;;;4.96;100.00
71735;BME280;59577;52.122;5.406;2023-11-22T10:38:48;103168.66;;;5.02;100.00
71735;BME280;59577;52.122;5.406;2023-11-22T10:41:15;103171.91;;;5.09;100.00
71735;BME280;59577;52.122;5.406;2023-11-22T10:43:43;103172.88;;;5.31;100.00
71735;BME280;59577;52.122;5.406;2023-11-22T10:46:12;103168.41;;;5.46;100.00
71735;BME280;59577;52.122;5.406;2023-11-22T10:48:40;103149.22;;;5.70;100.00
71735;BME280;59577;52.122;5.406;2023-11-22T10:51:12;103151.22;;;5.90;100.00
71735;BME280;59577;52.122;5.406;2023-11-22T10:53:45;103155.75;;;5.90;100.00
71735;BME280;59577;52.122;5.406;2023-11-22T10:56:16;103154.25;;;6.04;100.00
71735;BME280;59577;52.122;5.406;2023-11-22T10:58:59;103149.84;;;5.93;100.00
71735;BME280;59577;52.122;5.406;2023-11-22T11:01:29;103154.66;;;5.86;100.00
71735;BME280;59577;52.122;5.406;2023-11-22T11:04:02;103158.78;;;5.98;100.00
71735;BME280;59577;52.122;5.406;2023-11-22T11:06:34;103160.16;;;6.06;100.00
71735;BME280;59577;52.122;5.406;2023-11-22T11:09:02;103149.22;;;6.44;100.00
71735;BME280;59577;52.122;5.406;2023-11-22T11:11:34;103149.28;;;6.64;100.00
71735;BME280;59577;52.122;5.406;2023-11-22T11:14:02;103132.88;;;6.76;100.00
71735;BME280;59577;52.122;5.406;2023-11-22T11:16:35;103110.25;;;7.13;100.00
71735;BME280;59577;52.122;5.406;2023-11-22T11:19:17;103101.66;;;7.91;100.00
71735;BME280;59577;52.122;5.406;2023-11-22T11:21:44;103092.25;;;7.84;100.00
71735;BME280;59577;52.122;5.406;2023-11-22T11:24:11;103091.19;;;7.75;100.00
71735;BME280;59577;52.122;5.406;2023-11-22T11:26:38;103081.63;;;7.43;100.00
71735;BME280;59577;52.122;5.406;2023-11-22T11:29:04;103077.13;;;7.02;100.00
71735;BME280;59577;52.122;5.406;2023-11-22T11:31:38;103078.50;;;6.69;100.00
71735;BME280;59577;52.122;5.406;2023-11-22T11:34:06;103079.59;;;6.52;100.00
71735;BME280;59577;52.122;5.406;2023-11-22T11:36:33;103066.91;;;6.22;100.00
71735;BME280;59577;52.122;5.406;2023-11-22T11:39:01;103060.16;;;6.09;100.00
71735;BME280;59577;52.122;5.406;2023-11-22T11:41:32;103050.47;;;6.03;100.00
71735;BME280;59577;52.122;5.406;2023-11-22T11:44:02;103049.34;;;5.94;100.00
71735;BME280;59577;52.122;5.406;2023-11-22T11:46:33;103051.19;;;5.83;100.00
71735;BME280;59577;52.122;5.406;2023-11-22T11:48:59;103052.75;;;5.74;100.00
71735;BME280;59577;52.122;5.406;2023-11-22T11:51:28;103061.09;;;5.72;100.00
71735;BME280;59577;52.122;5.406;2023-11-22T11:53:55;103060.56;;;5.75;100.00
71735;BME280;59577;52.122;5.406;2023-11-22T11:56:22;103066.75;;;5.81;100.00
71735;BME280;59577;52.122;5.406;2023-11-22T11:58:50;103058.72;;;5.91;100.00
71735;BME280;59577;52.122;5.406;2023-11-22T12:01:17;103060.88;;;5.89;100.00
71735;BME280;59577;52.122;5.406;2023-11-22T12:03:46;103051.53;;;6.02;100.00
71735;BME280;59577;52.122;5.406;2023-11-22T12:06:18;103054.22;;;6.12;100.00
71735;BME280;59577;52.122;5.406;2023-11-22T12:08:46;103046.44;;;6.11;100.00
71735;BME280;59577;52.122;5.406;2023-11-22T12:11:14;103042.94;;;6.15;100.00
71735;BME280;59577;52.122;5.406;2023-11-22T12:13:42;103045.38;;;6.17;100.00
71735;BME280;59577;52.122;5.406;2023-11-22T12:16:17;103045.38;;;6.22;100.00
71735;BME280;59577;52.122;5.406;2023-11-22T12:18:46;103042.69;;;6.22;100.00
71735;BME280;59577;52.122;5.406;2023-11-22T12:21:15;103047.81;;;6.29;100.00
71735;BME280;59577;52.122;5.406;2023-11-22T12:23:43;103040.81;;;6.28;100.00
71735;BME280;59577;52.122;5.406;2023-11-22T12:26:13;103034.09;;;6.15;100.00
71735;BME280;59577;52.122;5.406;2023-11-22T12:28:41;103039.50;;;6.30;100.00
71735;BME280;59577;52.122;5.406;2023-11-22T12:31:19;103024.94;;;6.42;100.00
71735;BME280;59577;52.122;5.406;2023-11-22T12:33:45;103032.22;;;6.62;100.00
71735;BME280;59577;52.122;5.406;2023-11-22T12:36:17;103021.47;;;6.62;100.00
71735;BME280;59577;52.122;5.406;2023-11-22T12:38:44;103015.00;;;6.63;100.00
71735;BME280;59577;52.122;5.406;2023-11-22T12:41:10;103027.38;;;6.64;100.00
71735;BME280;59577;52.122;5.406;2023-11-22T12:43:37;103019.56;;;6.57;100.00
71735;BME280;59577;52.122;5.406;2023-11-22T12:46:16;103012.03;;;6.49;100.00
71735;BME280;59577;52.122;5.406;2023-11-22T12:48:44;103013.13;;;6.48;100.00
71735;BME280;59577;52.122;5.406;2023-11-22T12:51:17;103009.66;;;6.37;100.00
71735;BME280;59577;52.122;5.406;2023-11-22T12:53:48;103004.53;;;6.35;100.00